createdAt,value
2022-09-24T00:02:00.947Z,24.80
2022-09-24T00:04:33.192Z,22.90
2022-09-24T00:07:05.661Z,23.50
2022-09-24T00:09:37.540Z,19.50
2022-09-24T00:12:13.109Z,22.20
2022-09-24T00:14:45.429Z,22.20
2022-09-24T00:17:17.329Z,21.10
2022-09-24T00:19:49.514Z,22.20
2022-09-24T00:22:21.316Z,22.10
2022-09-24T00:25:10.747Z,25.40
2022-09-24T00:27:42.943Z,22.00
2022-09-24T00:30:15.718Z,24.80
2022-09-24T00:32:47.563Z,24.30
2022-09-24T00:35:19.480Z,23.70
2022-09-24T00:37:51.516Z,23.80
2022-09-24T00:40:28.019Z,21.70
2022-09-24T00:43:00.256Z,21.30
2022-09-24T00:45:32.904Z,23.60
2022-09-24T00:48:04.838Z,19.80
2022-09-24T00:50:37.889Z,22.50
2022-09-24T00:53:13.339Z,24.00
2022-09-24T00:55:49.423Z,24.30
2022-09-24T00:58:23.205Z,25.60
2022-09-24T01:01:00.590Z,21.50
2022-09-24T01:03:41.040Z,24.90
2022-09-24T01:06:14.633Z,24.70
2022-09-24T01:08:47.493Z,22.80
2022-09-24T01:11:37.279Z,23.10
2022-09-24T01:14:45.176Z,23.90
2022-09-24T01:17:28.858Z,21.40
2022-09-24T01:20:29.957Z,20.50
2022-09-24T01:23:29.770Z,24.70
2022-09-24T01:26:20.179Z,25.50
2022-09-24T01:29:06.475Z,19.80
2022-09-24T01:31:46.941Z,23.50
2022-09-24T01:34:29.577Z,22.80
2022-09-24T01:37:03.722Z,23.70
2022-09-24T01:39:38.015Z,23.50
2022-09-24T01:42:12.210Z,24.30
2022-09-24T01:44:45.369Z,21.50
2022-09-24T01:47:23.556Z,23.50
2022-09-24T01:49:55.542Z,23.90
2022-09-24T01:52:32.921Z,29.00
2022-09-24T01:55:07.703Z,23.20
2022-09-24T01:57:44.947Z,25.00
2022-09-24T02:00:18.994Z,23.50
2022-09-24T02:02:55.838Z,24.50
2022-09-24T02:05:33.354Z,23.10
2022-09-24T02:08:10.658Z,21.90
2022-09-24T02:10:47.651Z,25.90
2022-09-24T02:13:24.825Z,21.60
2022-09-24T02:16:00.807Z,25.60
2022-09-24T02:18:37.974Z,22.70
2022-09-24T02:21:14.131Z,23.40
2022-09-24T02:23:49.063Z,23.70
2022-09-24T02:26:21.131Z,23.40
2022-09-24T02:28:53.563Z,24.00
2022-09-24T02:31:30.318Z,22.20
2022-09-24T02:34:23.729Z,23.00
2022-09-24T02:37:00.285Z,22.90
2022-09-24T02:39:32.782Z,21.60
2022-09-24T02:42:06.545Z,26.40
2022-09-24T02:44:38.676Z,22.50
2022-09-24T02:47:10.718Z,23.90
2022-09-24T02:49:42.674Z,25.80
2022-09-24T02:52:14.623Z,24.60
2022-09-24T02:54:46.395Z,22.90
2022-09-24T02:57:18.647Z,22.70
2022-09-24T02:59:50.486Z,22.50
2022-09-24T03:02:22.472Z,24.40
2022-09-24T03:04:55.834Z,25.10
2022-09-24T03:07:27.783Z,25.70
2022-09-24T03:09:59.646Z,25.20
2022-09-24T03:12:31.474Z,23.10
2022-09-24T03:15:03.329Z,30.00
2022-09-24T03:17:35.216Z,27.20
2022-09-24T03:20:08.497Z,24.50
2022-09-24T03:22:40.580Z,22.00
2022-09-24T03:25:13.191Z,24.20
2022-09-24T03:27:45.223Z,26.60
2022-09-24T03:30:35.041Z,21.10
2022-09-24T03:33:07.099Z,25.40
2022-09-24T03:35:39.064Z,20.40
2022-09-24T03:38:10.994Z,20.20
2022-09-24T03:40:42.897Z,21.20
2022-09-24T03:43:15.017Z,20.60
2022-09-24T03:45:46.979Z,17.50
2022-09-24T03:48:19.816Z,19.30
2022-09-24T03:50:52.030Z,19.60
2022-09-24T03:53:24.504Z,19.00
2022-09-24T03:55:59.848Z,19.50
2022-09-24T03:58:34.684Z,20.60
2022-09-24T04:01:07.413Z,19.20
2022-09-24T04:03:40.673Z,22.40
2022-09-24T04:06:12.671Z,18.20
2022-09-24T04:08:44.567Z,20.50
2022-09-24T04:11:16.715Z,22.70
2022-09-24T04:13:48.939Z,20.20
2022-09-24T04:16:23.823Z,18.80
2022-09-24T04:18:56.362Z,16.50
2022-09-24T04:21:28.315Z,19.90
2022-09-24T04:24:00.393Z,21.30
2022-09-24T04:26:33.383Z,23.30
2022-09-24T04:29:06.860Z,21.10
2022-09-24T04:31:39.875Z,20.10
2022-09-24T04:34:12.648Z,20.10
2022-09-24T04:36:44.484Z,21.00
2022-09-24T04:39:16.946Z,20.10
2022-09-24T04:41:48.854Z,19.10
2022-09-24T04:44:21.026Z,20.40
2022-09-24T04:46:53.157Z,20.00
2022-09-24T04:49:25.215Z,20.50
2022-09-24T04:51:58.312Z,19.80
2022-09-24T04:54:30.542Z,19.40
2022-09-24T04:57:05.629Z,20.10
2022-09-24T04:59:39.995Z,17.90
2022-09-24T05:02:12.122Z,20.80
2022-09-24T05:04:44.772Z,18.90
2022-09-24T05:07:17.141Z,19.50
2022-09-24T05:09:49.478Z,19.50
2022-09-24T05:12:21.985Z,17.70
2022-09-24T05:14:54.027Z,20.50
2022-09-24T05:17:26.171Z,17.10
2022-09-24T05:19:59.713Z,15.90
2022-09-24T05:22:31.947Z,19.60
2022-09-24T05:25:04.107Z,17.70
2022-09-24T05:27:36.500Z,17.90
2022-09-24T05:30:10.701Z,15.00
2022-09-24T05:32:43.364Z,18.70
2022-09-24T05:35:15.575Z,17.60
2022-09-24T05:37:49.818Z,20.70
2022-09-24T05:40:40.055Z,22.90
2022-09-24T05:43:12.041Z,18.90
2022-09-24T05:45:45.541Z,19.20
2022-09-24T05:48:17.630Z,17.50
2022-09-24T05:50:49.496Z,15.60
2022-09-24T05:53:21.560Z,20.30
2022-09-24T05:55:53.616Z,16.70
2022-09-24T05:58:26.421Z,16.70
2022-09-24T06:00:59.682Z,18.00
2022-09-24T06:03:31.973Z,20.30
2022-09-24T06:06:04.388Z,20.30
2022-09-24T06:08:36.553Z,22.40
2022-09-24T06:11:09.642Z,20.40
2022-09-24T06:13:41.467Z,18.60
2022-09-24T06:16:14.210Z,16.70
2022-09-24T06:18:46.495Z,18.60
2022-09-24T06:21:19.126Z,17.80
2022-09-24T06:23:51.398Z,19.00
2022-09-24T06:26:26.387Z,16.40
2022-09-24T06:29:03.716Z,23.40
2022-09-24T06:31:37.025Z,16.80
2022-09-24T06:34:09.376Z,19.80
2022-09-24T06:36:41.340Z,19.00
2022-09-24T06:39:13.263Z,16.60
2022-09-24T06:41:45.098Z,17.00
2022-09-24T06:44:21.225Z,15.80
2022-09-24T06:46:53.763Z,18.00
2022-09-24T06:49:27.994Z,19.60
2022-09-24T06:52:04.621Z,34.90
2022-09-24T06:54:36.889Z,44.40
2022-09-24T06:57:09.969Z,23.60
2022-09-24T06:59:41.848Z,24.00
2022-09-24T07:02:13.820Z,60.70
2022-09-24T07:04:45.764Z,65.20
2022-09-24T07:07:34.369Z,51.40
2022-09-24T07:10:08.759Z,22.60
2022-09-24T07:12:42.630Z,21.70
2022-09-24T07:15:14.808Z,25.30
2022-09-24T07:17:46.774Z,31.40
2022-09-24T07:20:19.284Z,27.80
2022-09-24T07:22:51.247Z,19.40
2022-09-24T07:25:23.551Z,20.70
2022-09-24T07:27:55.437Z,19.40
2022-09-24T07:30:27.399Z,18.60
2022-09-24T07:33:00.129Z,25.70
2022-09-24T07:35:32.731Z,16.30
2022-09-24T07:38:06.394Z,15.30
2022-09-24T07:40:38.434Z,16.20
2022-09-24T07:43:14.111Z,17.20
2022-09-24T07:45:46.646Z,16.30
2022-09-24T07:48:19.319Z,15.80
2022-09-24T07:50:51.485Z,15.30
2022-09-24T07:53:23.852Z,14.80
2022-09-24T07:55:59.540Z,15.70
2022-09-24T07:58:32.079Z,20.30
2022-09-24T08:01:04.036Z,17.50
2022-09-24T08:03:36.827Z,18.20
2022-09-24T08:06:10.716Z,17.70
2022-09-24T08:08:43.695Z,18.00
2022-09-24T08:11:17.261Z,14.90
2022-09-24T08:13:49.265Z,15.50
2022-09-24T08:16:22.443Z,15.40
2022-09-24T08:18:54.899Z,20.90
2022-09-24T08:21:28.727Z,30.20
2022-09-24T08:24:01.061Z,17.30
2022-09-24T08:26:32.994Z,15.20
2022-09-24T08:29:05.790Z,15.50
2022-09-24T08:31:38.525Z,16.00
2022-09-24T08:34:10.845Z,57.80
2022-09-24T08:36:43.452Z,69.10
2022-09-24T08:39:16.034Z,72.50
2022-09-24T08:42:00.550Z,79.80
2022-09-24T08:44:55.459Z,26.50
2022-09-24T08:47:38.694Z,17.00
2022-09-24T08:50:17.503Z,34.90
2022-09-24T08:53:02.504Z,22.90
2022-09-24T08:55:39.385Z,30.10
2022-09-24T08:58:33.306Z,20.70
2022-09-24T09:01:16.435Z,16.00
2022-09-24T09:03:56.295Z,14.90
2022-09-24T09:06:47.442Z,17.00
2022-09-24T09:09:21.594Z,19.90
2022-09-24T09:12:06.927Z,17.80
2022-09-24T09:14:52.123Z,20.00
2022-09-24T09:17:33.565Z,23.10
2022-09-24T09:20:13.106Z,18.20
2022-09-24T09:22:49.016Z,18.40
2022-09-24T09:25:24.957Z,12.70
2022-09-24T09:28:02.335Z,17.00
2022-09-24T09:30:43.799Z,22.10
2022-09-24T09:33:29.281Z,17.60
2022-09-24T09:36:22.592Z,13.80
2022-09-24T09:39:05.959Z,13.40
2022-09-24T09:41:42.939Z,13.40
2022-09-24T09:44:22.325Z,17.80
2022-09-24T09:47:01.725Z,15.90
2022-09-24T09:49:38.682Z,13.80
2022-09-24T09:52:17.352Z,13.80
2022-09-24T09:54:49.917Z,13.60
2022-09-24T09:57:24.313Z,13.60
2022-09-24T09:59:57.157Z,18.50
2022-09-24T10:02:31.851Z,12.40
2022-09-24T10:05:06.621Z,13.10
2022-09-24T10:07:47.685Z,12.30
2022-09-24T10:10:24.736Z,17.90
2022-09-24T10:13:08.087Z,13.90
2022-09-24T10:15:52.225Z,10.50
2022-09-24T10:18:32.934Z,9.90
2022-09-24T10:21:12.111Z,8.50
2022-09-24T10:23:48.855Z,10.30
2022-09-24T10:26:20.754Z,10.00
2022-09-24T10:29:11.687Z,9.80
2022-09-24T10:31:45.873Z,9.20
2022-09-24T10:34:28.287Z,8.20
2022-09-24T10:37:13.926Z,10.60
2022-09-24T10:39:45.966Z,14.30
2022-09-24T10:42:30.486Z,11.10
2022-09-24T10:45:04.702Z,11.90
2022-09-24T10:47:45.756Z,9.10
2022-09-24T10:50:30.825Z,8.90
2022-09-24T10:53:09.055Z,10.10
2022-09-24T10:55:49.783Z,17.00
2022-09-24T10:58:43.376Z,87.40
2022-09-24T11:01:20.497Z,50.80
2022-09-24T11:04:36.390Z,18.10
2022-09-24T11:07:35.346Z,103.60
2022-09-24T11:10:22.126Z,34.90
2022-09-24T11:13:07.465Z,12.60
2022-09-24T11:15:58.928Z,11.10
2022-09-24T11:18:39.068Z,13.00
2022-09-24T11:21:23.396Z,22.20
2022-09-24T11:24:18.834Z,14.10
2022-09-24T11:27:01.611Z,19.10
2022-09-24T11:30:00.383Z,14.30
2022-09-24T11:32:42.642Z,40.10
2022-09-24T11:35:36.600Z,15.10
2022-09-24T11:38:14.888Z,8.20
2022-09-24T11:41:01.908Z,5.20
2022-09-24T11:43:54.028Z,5.40
2022-09-24T11:46:47.447Z,12.80
2022-09-24T11:49:34.220Z,26.40
2022-09-24T11:52:11.671Z,9.10
2022-09-24T11:54:50.492Z,6.10
2022-09-24T11:57:27.163Z,4.30
2022-09-24T12:00:07.460Z,8.00
2022-09-24T12:02:45.717Z,7.00
2022-09-24T12:05:26.627Z,11.30
2022-09-24T12:08:04.233Z,13.30
2022-09-24T12:10:43.422Z,5.10
2022-09-24T12:13:21.488Z,4.40
2022-09-24T12:15:57.410Z,7.10
2022-09-24T12:18:33.633Z,9.00
2022-09-24T12:21:11.016Z,7.30
2022-09-24T12:23:46.554Z,4.20
2022-09-24T12:26:22.224Z,5.40
2022-09-24T12:29:17.413Z,6.10
2022-09-24T12:32:16.106Z,7.80
2022-09-24T12:34:55.745Z,4.10
2022-09-24T12:37:33.242Z,4.60
2022-09-24T12:40:19.353Z,5.80
2022-09-24T12:42:56.104Z,4.80
2022-09-24T12:45:28.785Z,7.10
2022-09-24T12:48:02.943Z,9.50
2022-09-24T12:50:40.452Z,9.90
2022-09-24T12:53:25.534Z,5.20
2022-09-24T12:56:04.373Z,3.70
2022-09-24T12:58:42.487Z,10.00
2022-09-24T13:01:30.566Z,6.70
2022-09-24T13:04:26.073Z,6.10
2022-09-24T13:06:58.444Z,8.90
2022-09-24T13:09:37.267Z,5.30
2022-09-24T13:12:23.319Z,5.90
2022-09-24T13:15:01.528Z,11.20
2022-09-24T13:17:36.009Z,4.70
2022-09-24T13:20:19.028Z,6.40
2022-09-24T13:22:59.752Z,3.80
2022-09-24T13:25:31.779Z,4.60
2022-09-24T13:28:19.914Z,5.70
2022-09-24T13:30:59.473Z,4.30
2022-09-24T13:33:38.036Z,5.60
2022-09-24T13:36:18.170Z,4.70
2022-09-24T13:38:57.609Z,5.30
2022-09-24T13:41:37.030Z,4.60
2022-09-24T13:44:17.197Z,5.40
2022-09-24T13:46:53.313Z,5.20
2022-09-24T13:49:27.906Z,7.00
2022-09-24T13:52:13.155Z,5.40
2022-09-24T13:54:53.486Z,3.10
2022-09-24T13:57:27.532Z,4.90
2022-09-24T14:00:20.046Z,3.60
2022-09-24T14:03:03.002Z,5.70
2022-09-24T14:05:38.530Z,4.30
2022-09-24T14:08:14.213Z,3.90
2022-09-24T14:10:48.632Z,4.60
2022-09-24T14:13:23.213Z,4.60
2022-09-24T14:15:59.137Z,5.30
2022-09-24T14:18:31.745Z,3.40
2022-09-24T14:21:10.475Z,4.40
2022-09-24T14:23:48.538Z,3.10
2022-09-24T14:26:28.769Z,3.40
2022-09-24T14:29:07.079Z,3.10
2022-09-24T14:31:48.222Z,9.00
2022-09-24T14:34:34.255Z,9.40
2022-09-24T14:37:13.344Z,5.30
2022-09-24T14:39:47.658Z,5.50
2022-09-24T14:42:27.604Z,4.70
2022-09-24T14:45:00.709Z,8.40
2022-09-24T15:12:30.817Z,35.80
2022-09-24T15:15:02.187Z,38.20
2022-09-24T15:17:32.920Z,22.20
2022-09-24T15:20:04.300Z,34.80
2022-09-24T15:22:32.938Z,29.20
2022-09-24T15:25:02.546Z,36.80
2022-09-24T15:27:33.855Z,51.70
2022-09-24T15:30:04.635Z,42.00
2022-09-24T15:32:36.102Z,48.50
2022-09-24T15:35:08.923Z,31.20
2022-09-24T15:37:40.358Z,34.00
2022-09-24T15:40:19.925Z,27.80
2022-09-24T15:42:49.021Z,23.90
2022-09-24T15:45:20.988Z,31.30
2022-09-24T15:47:50.279Z,44.20
2022-09-24T15:50:20.556Z,33.40
2022-09-24T15:52:53.360Z,27.80
2022-09-24T15:55:23.626Z,18.50
2022-09-24T15:57:52.722Z,26.00
2022-09-24T16:00:23.334Z,19.70
2022-09-24T16:02:54.724Z,19.00
2022-09-24T16:05:24.157Z,22.00
2022-09-24T16:07:52.780Z,19.70
2022-09-24T16:10:21.525Z,29.20
2022-09-24T16:12:50.182Z,34.30
2022-09-24T16:15:19.070Z,19.80
2022-09-24T16:17:49.566Z,25.60
2022-09-24T16:20:18.763Z,36.80
2022-09-24T16:22:47.457Z,45.40
2022-09-24T16:25:19.357Z,25.30
2022-09-24T16:27:47.989Z,25.30
2022-09-24T16:30:17.194Z,37.90
2022-09-24T16:32:46.586Z,35.60
2022-09-24T16:35:18.429Z,28.90
2022-09-24T16:38:19.005Z,31.60
2022-09-24T16:41:00.273Z,16.80
2022-09-24T16:43:29.100Z,16.10
2022-09-24T16:46:02.904Z,13.80
2022-09-24T16:48:32.127Z,10.30
2022-09-24T16:51:05.037Z,9.00
2022-09-24T16:53:34.349Z,9.70
2022-09-24T16:56:04.817Z,13.40
2022-09-24T16:58:34.341Z,30.20
2022-09-24T17:01:06.149Z,77.80
2022-09-24T17:03:37.099Z,106.50
2022-09-24T17:06:07.190Z,44.30
2022-09-24T17:09:14.484Z,25.90
2022-09-24T17:11:46.102Z,29.10
2022-09-24T17:14:17.978Z,27.60
2022-09-24T17:16:49.082Z,32.50
2022-09-24T17:19:17.739Z,105.70
2022-09-24T17:21:49.737Z,49.40
2022-09-24T17:24:22.004Z,83.00
2022-09-24T17:26:51.527Z,97.50
2022-09-24T17:29:28.866Z,64.20
2022-09-24T17:32:00.725Z,37.90
2022-09-24T17:34:29.460Z,52.90
2022-09-24T17:36:59.222Z,40.90
2022-09-24T17:39:30.106Z,46.70
2022-09-24T17:41:58.636Z,41.10
2022-09-24T17:44:27.250Z,53.80
2022-09-24T17:46:56.594Z,43.50
2022-09-24T17:49:25.560Z,27.30
2022-09-24T17:51:54.074Z,27.90
2022-09-24T17:54:23.728Z,25.20
2022-09-24T17:56:52.527Z,20.00
2022-09-24T17:59:25.729Z,28.70
2022-09-24T18:01:55.431Z,26.90
2022-09-24T18:04:27.648Z,26.80
2022-09-24T18:06:56.346Z,31.80
2022-09-24T18:09:25.307Z,24.00
2022-09-24T18:11:53.879Z,30.60
2022-09-24T18:14:28.538Z,21.70
2022-09-24T18:16:59.500Z,15.80
2022-09-24T18:19:28.762Z,18.30
2022-09-24T18:21:59.408Z,20.30
2022-09-24T18:24:28.424Z,15.00
2022-09-24T18:26:56.874Z,19.60
2022-09-24T18:29:25.608Z,15.30
2022-09-24T18:33:18.213Z,14.90
2022-09-24T18:35:25.113Z,14.80
2022-09-24T18:50:31.303Z,13.60
2022-09-24T18:53:00.019Z,13.70
2022-09-24T18:55:29.868Z,13.70
2022-09-24T18:57:59.586Z,14.40
2022-09-24T19:00:49.020Z,13.90
2022-09-24T19:03:18.527Z,13.80
2022-09-24T19:05:51.254Z,13.40
2022-09-24T19:08:20.724Z,14.10
2022-09-24T19:10:52.751Z,11.30
2022-09-24T19:13:26.140Z,14.10
2022-09-24T19:15:55.216Z,17.20
2022-09-24T19:18:23.909Z,14.60
2022-09-24T19:20:52.815Z,14.80
2022-09-24T19:23:22.648Z,15.50
2022-09-24T19:25:51.455Z,14.00
2022-09-24T19:28:20.197Z,15.30
2022-09-24T19:30:51.225Z,14.50
2022-09-24T19:33:20.027Z,15.60
2022-09-24T19:35:55.253Z,15.20
2022-09-24T19:38:25.206Z,14.50
2022-09-24T19:40:58.670Z,13.40
2022-09-24T19:43:28.254Z,17.80
2022-09-24T19:45:58.989Z,14.60
2022-09-24T19:48:29.460Z,16.60
2022-09-24T19:51:08.089Z,14.60
2022-09-24T19:53:37.017Z,18.10
2022-09-24T19:56:10.548Z,29.60
2022-09-24T19:58:39.229Z,29.50
2022-09-24T20:01:16.176Z,41.40
2022-09-24T20:03:46.638Z,37.00
2022-09-24T20:06:17.660Z,34.00
2022-09-24T20:08:46.718Z,26.80
2022-09-24T20:11:19.771Z,22.70
2022-09-24T20:13:50.154Z,19.60
2022-09-24T20:16:20.331Z,19.10
2022-09-24T20:18:50.374Z,22.00
2022-09-24T20:21:19.439Z,19.10
2022-09-24T20:23:48.839Z,20.80
2022-09-24T20:26:36.010Z,18.60
2022-09-24T20:29:06.749Z,19.90
2022-09-24T20:31:35.445Z,19.20
2022-09-24T20:34:04.119Z,19.30
2022-09-24T20:36:32.827Z,20.20
2022-09-24T20:39:03.087Z,17.00
2022-09-24T20:41:31.676Z,17.40
2022-09-24T20:44:00.255Z,17.10
2022-09-24T20:46:29.312Z,19.40
2022-09-24T20:48:59.893Z,19.50
2022-09-24T20:51:30.626Z,17.10
2022-09-24T20:54:00.128Z,21.00
2022-09-24T20:56:30.252Z,20.20
2022-09-24T20:59:00.354Z,19.60
2022-09-24T21:01:29.043Z,19.60
2022-09-24T21:03:57.801Z,19.90
2022-09-24T21:06:26.452Z,17.30
2022-09-24T21:08:57.753Z,20.60
2022-09-24T21:11:28.047Z,19.00
2022-09-24T21:13:59.981Z,20.80
2022-09-24T21:16:30.747Z,17.80
2022-09-24T21:19:00.637Z,18.80
2022-09-24T21:21:31.226Z,21.00
2022-09-24T21:24:01.300Z,19.90
2022-09-24T21:26:31.170Z,17.90
2022-09-24T21:29:02.591Z,18.20
2022-09-24T21:31:33.638Z,19.60
2022-09-24T21:34:04.943Z,18.80
2022-09-24T21:36:42.874Z,20.20
2022-09-24T21:39:16.452Z,19.80
2022-09-24T21:41:49.226Z,18.80
2022-09-24T21:44:18.769Z,15.70
2022-09-24T21:46:51.682Z,21.40
2022-09-24T21:49:20.685Z,19.20
2022-09-24T21:51:50.102Z,21.60
2022-09-24T21:54:19.189Z,19.30
2022-09-24T21:56:48.176Z,21.00
2022-09-24T21:59:35.211Z,21.20
2022-09-24T22:02:04.742Z,17.70
2022-09-24T22:04:36.886Z,18.30
2022-09-24T22:07:05.700Z,17.90
2022-09-24T22:09:34.576Z,19.20
2022-09-24T22:12:04.381Z,20.70
2022-09-24T22:14:34.128Z,18.70
2022-09-24T22:17:03.371Z,19.50
2022-09-24T22:19:32.028Z,16.90
2022-09-24T22:22:00.455Z,16.00
2022-09-24T22:24:29.365Z,19.00
2022-09-24T22:26:58.471Z,17.20
2022-09-24T22:29:27.118Z,18.10
2022-09-24T22:31:55.598Z,23.70
2022-09-24T22:34:42.730Z,17.10
2022-09-24T22:37:11.414Z,18.10
2022-09-24T22:39:39.885Z,19.10
2022-09-24T22:42:08.558Z,20.30
2022-09-24T22:44:36.997Z,20.40
2022-09-24T22:47:05.688Z,23.10
2022-09-24T22:49:36.553Z,26.60
2022-09-24T22:52:05.098Z,21.10
2022-09-24T22:54:33.748Z,26.30
2022-09-24T22:57:02.206Z,23.90
2022-09-24T22:59:31.032Z,20.80
2022-09-24T23:01:59.427Z,22.20
2022-09-24T23:04:27.944Z,21.40
2022-09-24T23:06:56.431Z,20.00
2022-09-24T23:09:25.790Z,20.10
2022-09-24T23:11:56.012Z,22.50
2022-09-24T23:14:24.560Z,21.10
2022-09-24T23:16:53.020Z,19.70
2022-09-24T23:19:21.499Z,21.20
2022-09-24T23:21:51.230Z,18.70
2022-09-24T23:24:21.308Z,17.50
2022-09-24T23:26:50.520Z,17.60
2022-09-24T23:29:18.973Z,18.00
2022-09-24T23:31:47.586Z,22.10
2022-09-24T23:34:16.080Z,17.70
2022-09-24T23:36:45.605Z,19.40
2022-09-24T23:39:14.383Z,18.10
2022-09-24T23:41:44.000Z,15.70
2022-09-24T23:44:12.986Z,21.00
2022-09-24T23:46:41.496Z,17.00
2022-09-24T23:49:10.203Z,15.10
2022-09-24T23:51:38.628Z,18.70
2022-09-24T23:54:07.393Z,14.70
2022-09-24T23:56:35.881Z,16.00
2022-09-24T23:59:04.783Z,15.40
